Prestonwood, Texas
Current Conditions -  °F | °C
As of 3:57 PM on Wednesday 26 Nov 2014 (Local Time) from KADS Reporting Station
Clear Clear  
Wind Chill: 63°   Ceiling: Unl
Heat Index: 63°   Visibility: 13mi
Dew Point: 32°   Wind: 10mph
Humidity: 32%   Direction: 300°WNW
Pressure: 30.21"   Gusts: NA
Location:  32.9988°N, 96.7873°W
Report Text: KADS 262157Z 30009KT 13SM SKC 17/00 A3021
Loading
Personal Weather Stations






























Interactive Weather Map New forecast layout! Learn more

10-Day Weather Forecast

Advertisements
Track Severe Weather on mobile